Time;durP1;ratioP1;P1;durP2;ratioP2;P2;SDS_P1;SDS_P2;PMS_P1;PMS_P2;Temp;Humidity;BMP_temperature;BMP_pressure;BME280_temperature;BME280_humidity;BME280_pressure;Samples;Min_cycle;Max_cycle;Signal;HPM_P1;HPM_P2
2022/06/29 00:02:25;;;;;;;0.20;0.20;;;15.60;99.90;;;;;;5057437;28;20040;-80
2022/06/29 00:04:52;;;;;;;0.40;0.20;;;15.60;99.90;;;;;;5073891;28;20044;-80
2022/06/29 00:07:19;;;;;;;0.30;0.30;;;15.60;99.90;;;;;;5073826;28;20070;-80
2022/06/29 00:09:47;;;;;;;0.20;0.20;;;15.50;99.90;;;;;;5041445;28;20648;-79
2022/06/29 00:12:13;;;;;;;0.30;0.30;;;15.60;99.90;;;;;;5041736;28;20449;-79
2022/06/29 00:14:43;;;;;;;0.10;0.10;;;15.50;99.90;;;;;;5057586;28;20177;-80
2022/06/29 00:17:13;;;;;;;0.15;0.15;;;15.50;99.90;;;;;;5074543;28;20421;-80
2022/06/29 00:19:41;;;;;;;0.10;0.10;;;15.40;99.90;;;;;;5074177;28;20048;-80
2022/06/29 00:22:09;;;;;;;0.30;0.30;;;15.40;99.90;;;;;;5074680;28;20047;-80
2022/06/29 00:24:36;;;;;;;0.80;0.25;;;15.50;99.90;;;;;;5090026;28;20075;-80
2022/06/29 00:27:03;;;;;;;0.38;0.30;;;15.40;99.90;;;;;;5073640;28;20079;-80
2022/06/29 00:29:30;;;;;;;0.10;0.10;;;15.40;99.90;;;;;;5073376;28;20123;-80
2022/06/29 00:31:56;;;;;;;0.30;0.30;;;15.30;99.90;;;;;;5040861;28;20167;-80
2022/06/29 00:34:23;;;;;;;0.35;0.17;;;15.30;99.90;;;;;;5056997;28;20048;-79
2022/06/29 00:36:50;;;;;;;0.30;0.30;;;15.30;99.90;;;;;;5057188;28;20048;-80
2022/06/29 00:39:16;;;;;;;0.60;0.32;;;15.30;99.90;;;;;;5073599;28;20379;-79
2022/06/29 00:41:45;;;;;;;0.20;0.20;;;15.30;99.90;;;;;;5056743;28;20094;-80
2022/06/29 00:44:19;;;;;;;0.30;0.30;;;15.30;99.90;;;;;;5073143;28;20072;-80
2022/06/29 00:46:53;;;;;;;0.20;0.20;;;15.20;99.90;;;;;;5073097;28;20037;-80
2022/06/29 00:49:21;;;;;;;0.32;0.32;;;15.20;99.90;;;;;;5073576;28;20037;-80
2022/06/29 00:51:57;;;;;;;0.40;0.30;;;15.20;99.90;;;;;;5073302;28;20127;-80
2022/06/29 00:54:23;;;;;;;;;;;15.10;99.90;;;;;;5073453;28;20072;-80
2022/06/29 00:56:51;;;;;;;0.55;0.30;;;15.20;99.90;;;;;;5090319;28;19972;-79
2022/06/29 00:59:25;;;;;;;0.20;0.20;;;15.10;99.90;;;;;;5057162;28;20041;-80
2022/06/29 01:01:51;;;;;;;0.22;0.22;;;15.10;99.90;;;;;;5057228;28;20136;-80
2022/06/29 01:04:18;;;;;;;0.50;0.22;;;15.10;99.90;;;;;;5073221;28;20135;-80
2022/06/29 01:06:45;;;;;;;0.20;0.20;;;15.10;99.90;;;;;;5056488;28;20033;-80
2022/06/29 01:09:12;;;;;;;0.45;0.30;;;15.10;99.90;;;;;;5057202;28;20059;-80
2022/06/29 01:11:38;;;;;;;0.20;0.20;;;15.10;99.90;;;;;;5040460;28;20495;-80
2022/06/29 01:14:05;;;;;;;0.55;0.30;;;15.10;99.90;;;;;;5073035;28;20049;-80
2022/06/29 01:16:32;;;;;;;0.30;0.20;;;15.10;99.90;;;;;;5073072;28;20037;-80
2022/06/29 01:18:58;;;;;;;0.20;0.20;;;15.00;99.90;;;;;;5089413;28;20123;-80
2022/06/29 01:21:27;;;;;;;0.43;0.30;;;15.00;99.90;;;;;;5040111;28;20044;-79
2022/06/29 01:23:54;;;;;;;0.50;0.20;;;14.90;99.90;;;;;;5073068;28;20035;-80
2022/06/29 01:26:21;;;;;;;0.35;0.35;;;14.90;99.90;;;;;;5039877;28;20143;-80
2022/06/29 01:28:47;;;;;;;0.20;0.20;;;14.90;99.90;;;;;;5039904;28;20044;-79
2022/06/29 01:31:16;;;;;;;0.63;0.30;;;14.90;99.90;;;;;;5072739;28;20036;-79
2022/06/29 01:33:44;;;;;;;0.20;0.20;;;14.80;99.90;;;;;;5072819;28;20036;-80
2022/06/29 01:36:12;;;;;;;0.30;0.30;;;14.80;99.90;;;;;;5040275;28;20048;-80
2022/06/29 01:38:40;;;;;;;0.20;0.20;;;14.70;99.90;;;;;;5088922;28;20048;-80
2022/06/29 01:41:08;;;;;;;0.63;0.38;;;14.70;99.90;;;;;;5056341;28;20105;-80
2022/06/29 01:43:35;;;;;;;0.17;0.15;;;14.70;99.90;;;;;;5072296;28;20041;-80
2022/06/29 01:46:02;;;;;;;0.20;0.20;;;14.70;99.90;;;;;;5056423;28;20074;-79
2022/06/29 01:48:29;;;;;;;0.82;0.40;;;14.60;99.90;;;;;;5056308;28;20151;-79
2022/06/29 01:50:56;;;;;;;0.20;0.20;;;14.70;99.90;;;;;;5089144;28;20493;-79
2022/06/29 01:53:22;;;;;;;0.25;0.25;;;14.60;99.90;;;;;;5039587;28;20041;-80
2022/06/29 01:55:49;;;;;;;0.35;0.30;;;14.70;99.90;;;;;;5039633;28;20127;-80
2022/06/29 01:58:16;;;;;;;0.35;0.30;;;14.70;99.90;;;;;;5091755;28;20033;-79
2022/06/29 02:00:44;;;;;;;0.30;0.30;;;14.70;99.90;;;;;;5076188;28;20037;-80
2022/06/29 02:03:11;;;;;;;0.47;0.30;;;14.70;99.90;;;;;;5093128;28;20131;-79
2022/06/29 02:05:37;;;;;;;0.47;0.35;;;14.60;99.90;;;;;;5092805;28;20131;-80
2022/06/29 02:08:05;;;;;;;0.13;0.13;;;14.60;99.90;;;;;;5043710;28;20059;-79
2022/06/29 02:10:32;;;;;;;0.30;0.30;;;14.50;99.90;;;;;;5076341;28;20102;-80
2022/06/29 02:12:59;;;;;;;0.35;0.30;;;14.40;99.90;;;;;;5076279;28;20032;-79
2022/06/29 02:15:26;;;;;;;0.52;0.30;;;14.40;99.90;;;;;;5060069;28;20124;-79
2022/06/29 02:17:53;;;;;;;0.45;0.40;;;14.40;99.90;;;;;;5043087;28;20452;-79
2022/06/29 02:20:20;;;;;;;0.32;0.30;;;14.40;99.90;;;;;;5076170;28;20131;-79
2022/06/29 02:22:46;;;;;;;0.40;0.30;;;14.40;99.90;;;;;;5075895;28;20041;-80
2022/06/29 02:25:13;;;;;;;0.47;0.30;;;14.40;99.90;;;;;;5059836;28;20144;-80
2022/06/29 02:27:40;;;;;;;0.43;0.20;;;14.30;99.90;;;;;;5059429;28;20374;-79
2022/06/29 02:30:12;;;;;;;1.63;0.20;;;14.30;99.90;;;;;;5059862;28;20098;-80
2022/06/29 02:35:25;;;;;;;0.80;0.47;;;14.30;99.90;;;;;;5078549;28;20048;-81
2022/06/29 02:37:52;;;;;;;0.32;0.32;;;14.30;99.90;;;;;;5075155;28;20036;-80
2022/06/29 02:40:19;;;;;;;0.45;0.40;;;14.30;99.90;;;;;;5059155;28;20079;-80
2022/06/29 02:42:45;;;;;;;0.35;0.22;;;14.30;99.90;;;;;;5075317;28;20079;-80
2022/06/29 02:45:12;;;;;;;0.32;0.30;;;14.30;99.90;;;;;;5043230;28;20037;-80
2022/06/29 02:47:39;;;;;;;0.35;0.35;;;14.30;99.90;;;;;;5075070;28;20383;-80
2022/06/29 02:50:06;;;;;;;0.35;0.30;;;14.40;99.90;;;;;;5042784;28;20123;-80
2022/06/29 02:52:32;;;;;;;0.63;0.47;;;14.30;99.90;;;;;;5074992;28;20505;-80
2022/06/29 02:54:59;;;;;;;0.85;0.50;;;14.40;99.90;;;;;;5042114;28;20135;-80
2022/06/29 02:57:26;;;;;;;0.75;0.43;;;14.30;99.90;;;;;;5058419;28;20032;-81
2022/06/29 02:59:53;;;;;;;0.38;0.30;;;14.30;99.90;;;;;;5075264;28;20044;-80
2022/06/29 03:02:19;;;;;;;0.30;0.30;;;14.30;99.90;;;;;;5091533;28;20101;-81
2022/06/29 03:04:46;;;;;;;0.13;0.13;;;14.30;99.90;;;;;;5041873;28;20044;-81
2022/06/29 03:07:13;;;;;;;0.22;0.22;;;14.30;99.90;;;;;;5058890;28;20040;-81
2022/06/29 03:09:39;;;;;;;0.17;0.17;;;14.20;99.90;;;;;;5058457;28;20044;-81
2022/06/29 03:12:06;;;;;;;0.15;0.15;;;14.20;99.90;;;;;;5074967;28;20810;-80
2022/06/29 03:14:33;;;;;;;0.10;0.10;;;14.20;99.90;;;;;;5091442;28;20076;-80
2022/06/29 03:16:59;;;;;;;0.35;0.32;;;14.20;99.90;;;;;;5042027;28;20044;-81
2022/06/29 03:19:26;;;;;;;0.55;0.40;;;14.10;99.90;;;;;;5058534;28;20045;-81
2022/06/29 03:21:53;;;;;;;0.30;0.20;;;14.10;99.90;;;;;;5074849;28;20044;-81
2022/06/29 03:24:20;;;;;;;0.30;0.28;;;14.10;99.90;;;;;;5058704;28;20076;-81
2022/06/29 03:26:47;;;;;;;0.43;0.30;;;14.10;99.90;;;;;;5038460;28;20076;-81
2022/06/29 03:29:13;;;;;;;0.30;0.30;;;14.00;99.90;;;;;;5038701;28;20037;-80
2022/06/29 03:31:40;;;;;;;0.47;0.32;;;14.00;99.90;;;;;;5038532;28;20041;-81
2022/06/29 03:34:07;;;;;;;0.22;0.22;;;14.00;99.90;;;;;;5071274;28;20071;-80
2022/06/29 03:36:33;;;;;;;0.10;0.10;;;14.00;99.90;;;;;;5054786;28;20037;-81
2022/06/29 03:39:00;;;;;;;0.40;0.35;;;14.00;99.90;;;;;;5054582;28;20518;-80
2022/06/29 03:41:27;;;;;;;0.73;0.35;;;14.00;99.90;;;;;;5054997;28;20041;-80
2022/06/29 03:43:53;;;;;;;0.30;0.20;;;14.10;99.90;;;;;;5054333;28;20077;-80
2022/06/29 03:46:20;;;;;;;0.25;0.25;;;14.10;99.90;;;;;;5054572;28;20045;-81
2022/06/29 03:48:47;;;;;;;0.25;0.25;;;14.10;99.90;;;;;;5054668;28;20486;-80
2022/06/29 03:51:13;;;;;;;0.20;0.20;;;14.20;99.90;;;;;;5054341;28;20037;-81
2022/06/29 03:53:40;;;;;;;0.35;0.28;;;14.20;99.90;;;;;;5054579;28;20072;-81
2022/06/29 03:56:07;;;;;;;0.80;0.40;;;14.30;99.90;;;;;;5070560;28;20456;-81
2022/06/29 03:58:34;;;;;;;0.47;0.28;;;14.30;99.90;;;;;;5054306;28;20071;-80
2022/06/29 04:01:00;;;;;;;0.77;0.35;;;14.40;99.90;;;;;;5070662;28;20037;-81
2022/06/29 04:03:27;;;;;;;0.73;0.40;;;14.40;99.90;;;;;;5054514;28;20045;-80
2022/06/29 04:05:54;;;;;;;0.77;0.40;;;14.50;99.90;;;;;;5070830;28;20052;-80
2022/06/29 04:08:20;;;;;;;0.75;0.40;;;14.50;99.90;;;;;;5055384;28;20414;-81
2022/06/29 04:10:47;;;;;;;0.20;0.20;;;14.60;99.90;;;;;;5076852;28;20106;-81
2022/06/29 04:13:14;;;;;;;0.57;0.40;;;14.60;99.90;;;;;;5093281;28;20087;-81
2022/06/29 04:15:41;;;;;;;0.88;0.60;;;14.70;99.90;;;;;;5069098;28;20040;-80
2022/06/29 04:18:08;;;;;;;0.82;0.50;;;14.70;99.90;;;;;;5065526;28;20047;-81
2022/06/29 04:23:20;;;;;;;0.77;0.40;;;14.80;99.90;;;;;;5075197;28;20040;-81
2022/06/29 04:25:47;;;;;;;0.80;0.47;;;14.80;99.90;;;;;;5071295;28;20052;-80
2022/06/29 04:28:14;;;;;;;0.45;0.45;;;14.90;99.90;;;;;;5060773;28;20804;-81
2022/06/29 04:30:40;;;;;;;0.40;0.38;;;15.00;99.90;;;;;;5060698;28;20423;-81
2022/06/29 04:33:07;;;;;;;0.30;0.30;;;15.10;99.90;;;;;;5077258;28;20093;-80
2022/06/29 04:35:34;;;;;;;0.75;0.50;;;15.20;99.90;;;;;;5077300;28;20047;-81
2022/06/29 04:38:01;;;;;;;0.57;0.50;;;15.20;99.90;;;;;;5074131;28;20119;-80
2022/06/29 04:40:28;;;;;;;1.13;0.68;;;15.30;99.90;;;;;;5077147;28;20093;-81
2022/06/29 04:42:54;;;;;;;0.50;0.47;;;15.40;99.90;;;;;;5057611;28;20074;-80
2022/06/29 04:48:06;;;;;;;0.52;0.40;;;15.60;99.90;;;;;;5080845;28;20127;-81
2022/06/29 04:50:32;;;;;;;0.70;0.50;;;15.70;99.90;;;;;;5086521;28;20115;-81
2022/06/29 04:52:59;;;;;;;0.52;0.50;;;15.70;99.90;;;;;;5071382;28;20075;-81
2022/06/29 04:55:28;;;;;;;0.57;0.38;;;15.80;99.90;;;;;;5089960;28;20043;-80
2022/06/29 04:57:55;;;;;;;0.50;0.50;;;15.80;99.90;;;;;;5072972;28;20822;-80
2022/06/29 05:00:22;;;;;;;0.70;0.30;;;16.00;99.90;;;;;;5089834;28;20105;-80
2022/06/29 05:02:48;;;;;;;1.90;0.60;;;16.00;99.90;;;;;;5089753;28;20040;-81
2022/06/29 05:05:15;;;;;;;0.35;0.30;;;16.10;99.90;;;;;;5106402;28;20038;-81
2022/06/29 05:07:42;;;;;;;0.38;0.38;;;16.20;99.90;;;;;;5123330;28;20040;-81
2022/06/29 05:10:09;;;;;;;0.88;0.50;;;16.20;99.90;;;;;;5106138;28;20044;-81
2022/06/29 05:12:38;;;;;;;0.50;0.43;;;16.20;99.90;;;;;;5091146;28;20074;-80
2022/06/29 05:15:06;;;;;;;0.70;0.60;;;16.30;99.90;;;;;;5093403;28;20036;-81
2022/06/29 05:17:36;;;;;;;0.40;0.40;;;16.30;99.90;;;;;;5106080;28;20052;-81
2022/06/29 05:20:08;;;;;;;0.60;0.50;;;16.30;99.90;;;;;;5106414;28;20044;-81
2022/06/29 05:22:35;;;;;;;0.77;0.50;;;16.30;99.90;;;;;;5089717;28;20063;-81
2022/06/29 05:25:03;;;;;;;1.02;0.43;;;16.30;99.90;;;;;;5105689;28;20118;-81
2022/06/29 05:27:29;;;;;;;0.65;0.50;;;16.40;99.90;;;;;;5089358;28;20090;-81
2022/06/29 05:29:56;;;;;;;0.65;0.32;;;16.40;99.90;;;;;;5105886;28;20052;-81
2022/06/29 05:32:23;;;;;;;0.65;0.55;;;16.40;99.90;;;;;;5089274;28;20033;-81
2022/06/29 05:34:50;;;;;;;0.73;0.50;;;16.50;99.90;;;;;;5105841;28;20040;-81
2022/06/29 05:37:17;;;;;;;1.15;0.73;;;16.60;99.90;;;;;;5105501;28;20036;-81
2022/06/29 05:39:44;;;;;;;0.85;0.60;;;16.60;99.90;;;;;;5113692;28;20029;-81
2022/06/29 05:42:14;;;;;;;0.65;0.55;;;16.70;99.90;;;;;;5108144;28;20033;-81
2022/06/29 05:44:41;;;;;;;0.52;0.28;;;16.80;99.90;;;;;;5073493;28;20424;-80
2022/06/29 05:47:08;;;;;;;0.50;0.45;;;16.90;99.90;;;;;;5074057;28;20040;-80
2022/06/29 05:49:35;;;;;;;0.98;0.60;;;16.90;99.90;;;;;;5101993;28;20064;-81
2022/06/29 05:52:03;;;;;;;0.90;0.52;;;17.00;99.90;;;;;;5105695;28;20067;-81
2022/06/29 05:54:30;;;;;;;0.50;0.40;;;17.10;99.90;;;;;;5085362;28;20036;-81
2022/06/29 05:56:57;;;;;;;0.85;0.50;;;17.20;99.90;;;;;;5088955;28;20466;-81
2022/06/29 05:59:23;;;;;;;1.30;0.68;;;17.20;99.90;;;;;;5072423;28;20045;-80
2022/06/29 06:01:50;;;;;;;0.40;0.40;;;17.30;99.90;;;;;;5039940;28;20489;-81
2022/06/29 06:04:17;;;;;;;0.60;0.50;;;17.40;99.90;;;;;;5072128;28;20036;-80
2022/06/29 06:06:44;;;;;;;0.70;0.40;;;17.40;99.90;;;;;;5072022;28;20408;-81
2022/06/29 06:09:10;;;;;;;0.30;0.30;;;17.40;99.90;;;;;;5086626;28;20481;-80
2022/06/29 06:11:37;;;;;;;0.50;0.43;;;17.40;99.90;;;;;;5107469;28;20516;-81
2022/06/29 06:14:04;;;;;;;0.63;0.50;;;17.50;99.90;;;;;;5072133;28;20041;-80
2022/06/29 06:16:30;;;;;;;0.40;0.30;;;17.50;99.90;;;;;;5073520;28;20127;-80
2022/06/29 06:18:57;;;;;;;0.30;0.30;;;17.60;99.90;;;;;;5085801;28;20048;-81
2022/06/29 06:21:24;;;;;;;0.55;0.40;;;17.70;99.90;;;;;;5039413;28;20076;-81
2022/06/29 06:23:50;;;;;;;0.70;0.47;;;17.80;99.90;;;;;;5055777;28;20035;-80
2022/06/29 06:26:17;;;;;;;0.50;0.40;;;17.80;99.90;;;;;;5055330;28;20110;-81
2022/06/29 06:28:44;;;;;;;1.23;0.70;;;17.90;99.90;;;;;;5055523;28;20045;-81
2022/06/29 06:31:10;;;;;;;0.52;0.40;;;18.10;99.90;;;;;;5055215;28;20044;-80
2022/06/29 06:33:37;;;;;;;1.08;0.60;;;18.30;99.90;;;;;;5055845;28;20044;-80
2022/06/29 06:36:04;;;;;;;1.05;0.50;;;18.40;99.90;;;;;;5039413;28;20045;-81
2022/06/29 06:38:31;;;;;;;0.60;0.40;;;18.60;99.90;;;;;;5084826;28;20119;-82
2022/06/29 06:43:42;;;;;;;0.40;0.40;;;18.90;99.90;;;;;;5073553;28;20044;-81
2022/06/29 06:46:09;;;;;;;0.32;0.30;;;19.10;99.90;;;;;;5108231;28;20124;-81
2022/06/29 06:48:36;;;;;;;0.43;0.43;;;19.20;99.90;;;;;;5085200;28;20024;-81
2022/06/29 06:51:03;;;;;;;0.70;0.50;;;19.30;99.90;;;;;;5109345;28;20036;-81
2022/06/29 06:53:31;;;;;;;0.47;0.40;;;19.40;99.90;;;;;;5112577;28;20055;-82
2022/06/29 06:55:58;;;;;;;0.50;0.40;;;19.50;99.90;;;;;;5075503;28;20120;-80
2022/06/29 06:58:24;;;;;;;0.20;0.20;;;19.60;99.90;;;;;;5061527;28;20123;-81
2022/06/29 07:00:51;;;;;;;0.38;0.20;;;19.70;99.90;;;;;;5075739;28;20051;-80
2022/06/29 07:03:18;;;;;;;0.43;0.32;;;19.90;99.90;;;;;;5059165;28;20520;-81
2022/06/29 07:05:44;;;;;;;0.40;0.30;;;19.90;99.90;;;;;;5077935;28;20041;-81
2022/06/29 07:08:11;;;;;;;0.38;0.30;;;20.10;99.90;;;;;;5091724;28;20119;-81
2022/06/29 07:10:38;;;;;;;0.50;0.38;;;20.20;99.90;;;;;;5095338;28;20412;-81
2022/06/29 07:13:04;;;;;;;0.43;0.38;;;20.30;99.90;;;;;;5093302;28;20040;-81
2022/06/29 07:15:31;;;;;;;0.47;0.30;;;20.40;99.90;;;;;;5091121;28;20075;-81
2022/06/29 07:17:58;;;;;;;0.30;0.30;;;20.40;99.90;;;;;;5076425;28;20139;-81
2022/06/29 07:20:28;;;;;;;0.40;0.30;;;20.60;99.90;;;;;;5075687;28;20036;-81
2022/06/29 07:22:55;;;;;;;0.55;0.35;;;20.80;99.90;;;;;;5094997;28;20140;-82
2022/06/29 07:25:21;;;;;;;0.20;0.20;;;20.80;99.90;;;;;;5107939;28;20086;-81
2022/06/29 07:27:49;;;;;;;0.47;0.40;;;20.90;99.90;;;;;;5074955;28;20052;-83
2022/06/29 07:30:17;;;;;;;0.52;0.38;;;21.00;99.90;;;;;;5075430;28;20045;-80
2022/06/29 07:32:44;;;;;;;0.47;0.30;;;21.00;99.90;;;;;;5108505;28;20048;-83
2022/06/29 07:35:10;;;;;;;0.30;0.30;;;21.20;99.90;;;;;;5074716;28;20477;-80
2022/06/29 07:37:37;;;;;;;0.52;0.38;;;21.30;99.90;;;;;;5091319;28;20130;-80
2022/06/29 07:40:04;;;;;;;0.30;0.30;;;21.40;99.90;;;;;;5074458;28;20046;-79
2022/06/29 07:42:33;;;;;;;0.30;0.30;;;21.50;99.90;;;;;;5090766;28;20037;-79
2022/06/29 07:44:59;;;;;;;0.60;0.40;;;21.60;99.90;;;;;;5091256;28;20489;-81
2022/06/29 07:47:26;;;;;;;0.38;0.38;;;21.60;99.90;;;;;;5076143;28;20043;-80
2022/06/29 07:49:53;;;;;;;0.43;0.32;;;21.60;99.90;;;;;;5107726;28;20454;-80
2022/06/29 07:52:21;;;;;;;0.50;0.50;;;21.80;99.90;;;;;;5084175;28;20079;-80
2022/06/29 07:54:47;;;;;;;0.35;0.35;;;21.90;99.90;;;;;;5071424;28;20036;-81
2022/06/29 07:57:14;;;;;;;0.32;0.32;;;22.00;99.90;;;;;;5094603;28;20051;-82
2022/06/29 07:59:40;;;;;;;0.28;0.28;;;22.10;99.90;;;;;;5094141;28;20075;-82
2022/06/29 08:02:07;;;;;;;0.30;0.30;;;22.20;99.90;;;;;;5094527;28;20036;-82
2022/06/29 08:04:34;;;;;;;0.50;0.50;;;22.40;99.90;;;;;;5110863;28;20040;-82
2022/06/29 08:07:00;;;;;;;0.10;0.10;;;22.50;99.90;;;;;;5111098;28;20040;-82
2022/06/29 08:09:27;;;;;;;0.40;0.40;;;22.60;99.90;;;;;;5094437;28;20039;-81
2022/06/29 08:11:54;;;;;;;0.20;0.20;;;22.70;99.90;;;;;;5111181;28;20048;-81
2022/06/29 08:14:21;;;;;;;0.32;0.32;;;22.70;99.90;;;;;;5127546;28;20126;-83
2022/06/29 08:16:47;;;;;;;0.22;0.22;;;22.80;99.90;;;;;;5127903;28;20050;-82
2022/06/29 08:19:14;;;;;;;1.17;0.52;;;22.90;99.90;;;;;;5144551;28;20062;-82
2022/06/29 08:21:41;;;;;;;0.30;0.30;;;23.00;99.90;;;;;;5110653;28;20036;-82
2022/06/29 08:24:07;;;;;;;0.50;0.40;;;23.10;99.90;;;;;;5144445;28;20044;-82
2022/06/29 08:26:34;;;;;;;0.85;0.60;;;23.20;99.90;;;;;;5093799;28;20518;-82
2022/06/29 08:29:01;;;;;;;0.30;0.30;;;23.30;99.90;;;;;;5110485;28;20036;-82
2022/06/29 08:31:28;;;;;;;0.30;0.30;;;23.40;99.90;;;;;;5127455;28;20036;-82
2022/06/29 08:33:54;;;;;;;0.57;0.30;;;23.40;99.90;;;;;;5144473;28;20049;-82
2022/06/29 08:36:22;;;;;;;0.32;0.30;;;23.60;99.90;;;;;;5077175;28;20040;-81
2022/06/29 08:38:49;;;;;;;0.43;0.38;;;23.60;99.90;;;;;;5094255;28;20444;-81
2022/06/29 08:41:16;;;;;;;0.90;0.50;;;23.70;99.90;;;;;;5077231;28;20484;-82
2022/06/29 08:43:43;;;;;;;0.63;0.45;;;23.80;99.90;;;;;;5093557;28;20071;-81
2022/06/29 08:46:13;;;;;;;0.20;0.20;;;23.90;99.90;;;;;;5110015;28;20068;-82
2022/06/29 08:48:40;;;;;;;0.65;0.50;;;23.90;99.90;;;;;;5110378;28;20093;-82
2022/06/29 08:51:10;;;;;;;0.40;0.40;;;24.00;99.90;;;;;;5110202;28;20082;-82
2022/06/29 08:53:38;;;;;;;0.20;0.20;;;24.10;99.90;;;;;;5093564;28;20043;-81
2022/06/29 08:56:06;;;;;;;0.32;0.30;;;24.20;99.90;;;;;;5077286;28;20097;-83
2022/06/29 08:58:35;;;;;;;0.15;0.15;;;24.30;99.90;;;;;;5093619;28;20044;-82
2022/06/29 09:01:01;;;;;;;0.57;0.50;;;24.40;99.90;;;;;;5093624;28;20135;-82
2022/06/29 09:03:28;;;;;;;0.30;0.30;;;24.60;99.90;;;;;;5093229;28;20178;-82
2022/06/29 09:05:56;;;;;;;0.47;0.47;;;24.60;99.90;;;;;;5110088;28;20032;-82
2022/06/29 09:08:23;;;;;;;0.38;0.38;;;24.60;99.90;;;;;;5110347;28;20047;-82
2022/06/29 09:10:50;;;;;;;0.77;0.40;;;24.70;99.90;;;;;;5109853;28;20631;-82
2022/06/29 09:13:22;;;;;;;1.35;0.50;;;24.80;99.90;;;;;;5143944;28;20032;-83
2022/06/29 09:15:57;;;;;;;0.47;0.40;;;24.90;99.90;;;;;;5110485;28;20473;-83
2022/06/29 09:18:32;;;;;;;0.40;0.40;;;24.90;99.90;;;;;;5109665;28;20408;-82
2022/06/29 09:21:05;;;;;;;0.22;0.22;;;25.00;99.90;;;;;;5093301;28;20047;-83
2022/06/29 09:23:34;;;;;;;0.40;0.38;;;25.10;99.90;;;;;;5109338;28;20044;-82
2022/06/29 09:26:01;;;;;;;0.40;0.40;;;25.10;99.50;;;;;;5106261;28;20064;-82
2022/06/29 09:28:32;;;;;;;0.40;0.40;;;25.30;99.90;;;;;;5105999;28;20051;-82
2022/06/29 09:30:59;;;;;;;0.30;0.30;;;25.40;99.90;;;;;;5106547;28;20033;-82
2022/06/29 09:33:33;;;;;;;0.40;0.32;;;25.50;99.90;;;;;;5089235;28;20076;-82
2022/06/29 09:36:05;;;;;;;0.73;0.50;;;25.70;99.90;;;;;;5089630;28;20048;-83
2022/06/29 09:38:32;;;;;;;0.30;0.30;;;25.80;99.90;;;;;;5088982;28;20047;-83
2022/06/29 09:41:09;;;;;;;1.13;0.50;;;25.90;99.90;;;;;;5089294;28;20128;-82
2022/06/29 09:43:43;;;;;;;0.40;0.40;;;26.00;99.90;;;;;;5089014;28;20202;-82
2022/06/29 09:46:13;;;;;;;0.65;0.50;;;26.10;99.90;;;;;;5089290;28;20040;-82
2022/06/29 09:48:41;;;;;;;0.40;0.40;;;26.20;99.90;;;;;;5089056;28;20032;-82
2022/06/29 09:53:59;;;;;;;0.30;0.30;;;26.30;99.60;;;;;;5091986;28;20056;-83
2022/06/29 09:56:29;;;;;;;0.20;0.20;;;26.30;98.40;;;;;;5089134;28;20119;-82
2022/06/29 09:58:58;;;;;;;0.60;0.43;;;26.40;98.10;;;;;;5089379;28;20037;-82
2022/06/29 10:04:13;;;;;;;0.52;0.50;;;26.60;98.40;;;;;;5092104;28;20048;-82
2022/06/29 10:06:40;;;;;;;0.38;0.38;;;26.70;97.60;;;;;;5089281;28;20068;-83
2022/06/29 10:09:21;;;;;;;0.40;0.30;;;26.80;94.80;;;;;;5072731;28;20047;-83
2022/06/29 10:15:24;;;;;;;0.38;0.38;;;26.90;95.80;;;;;;5105932;28;20048;-83
2022/06/29 10:18:16;;;;;;;0.50;0.32;;;27.00;94.00;;;;;;5084844;28;20076;-83
2022/06/29 10:20:46;;;;;;;0.25;0.25;;;27.10;94.20;;;;;;5052725;28;20075;-83
2022/06/29 10:23:48;;;;;;;0.32;0.32;;;27.10;95.10;;;;;;5075902;28;20055;-82
2022/06/29 10:26:35;;;;;;;0.40;0.40;;;27.20;93.30;;;;;;5101711;28;20099;-81
2022/06/29 10:29:08;;;;;;;0.30;0.30;;;27.20;92.70;;;;;;5086307;28;20037;-82
2022/06/29 10:31:49;;;;;;;0.52;0.32;;;27.40;92.60;;;;;;5076067;28;20040;-84
2022/06/29 10:37:29;;;;;;;0.30;0.30;;;27.30;92.50;;;;;;5078472;28;20048;-81
2022/06/29 10:39:58;;;;;;;0.45;0.30;;;27.40;91.10;;;;;;5059049;28;20044;-81
2022/06/29 10:45:29;;;;;;;0.30;0.30;;;27.60;91.60;;;;;;5099727;28;20133;-81
2022/06/29 10:47:56;;;;;;;0.43;0.30;;;27.80;91.90;;;;;;5111604;28;20056;-82
2022/06/29 10:50:28;;;;;;;0.38;0.38;;;28.00;92.30;;;;;;5091669;28;20440;-81
2022/06/29 10:52:56;;;;;;;0.32;0.32;;;27.80;91.60;;;;;;5092151;28;20033;-82
2022/06/29 10:55:24;;;;;;;0.30;0.30;;;27.50;91.30;;;;;;5091490;28;20134;-82
2022/06/29 10:57:52;;;;;;;0.30;0.30;;;27.40;90.40;;;;;;5075077;28;20098;-80
2022/06/29 11:00:28;;;;;;;0.43;0.35;;;27.30;92.10;;;;;;5058899;28;20484;-82
2022/06/29 11:02:54;;;;;;;0.47;0.30;;;27.40;91.50;;;;;;5074902;28;20043;-80
2022/06/29 11:05:21;;;;;;;0.40;0.30;;;27.40;90.70;;;;;;5058352;28;20044;-82
2022/06/29 11:13:28;;;;;;;0.40;0.40;;;27.10;91.30;;;;;;5071643;28;20068;-82
2022/06/29 11:15:56;;;;;;;0.30;0.30;;;27.00;90.50;;;;;;5088035;28;20410;-82
2022/06/29 11:18:28;;;;;;;0.38;0.38;;;26.90;89.30;;;;;;5087759;28;20174;-82
2022/06/29 11:21:02;;;;;;;0.35;0.30;;;26.90;92.60;;;;;;5104322;28;20040;-81
2022/06/29 11:23:31;;;;;;;0.20;0.20;;;26.90;89.80;;;;;;5108212;28;20397;-82
2022/06/29 11:25:59;;;;;;;0.22;0.22;;;26.90;90.10;;;;;;5070248;28;20104;-82
2022/06/29 11:28:30;;;;;;;0.38;0.30;;;26.90;90.70;;;;;;5074110;28;20493;-81
2022/06/29 11:30:59;;;;;;;1.17;0.32;;;26.90;90.50;;;;;;5058010;28;20055;-82
2022/06/29 11:33:37;;;;;;;0.45;0.38;;;26.90;90.10;;;;;;5091100;28;20044;-81
2022/06/29 11:36:08;;;;;;;0.40;0.40;;;26.90;90.70;;;;;;5091924;28;20048;-80
2022/06/29 11:38:40;;;;;;;0.20;0.20;;;26.90;90.70;;;;;;5074686;28;20497;-81
2022/06/29 11:44:24;;;;;;;0.52;0.47;;;27.00;91.20;;;;;;5076856;28;20102;-81
2022/06/29 11:46:52;;;;;;;0.40;0.40;;;27.00;91.60;;;;;;5074039;28;20051;-82
2022/06/29 11:49:33;;;;;;;0.45;0.30;;;27.00;90.20;;;;;;5074459;28;20040;-80
2022/06/29 11:52:03;;;;;;;0.45;0.40;;;26.90;90.20;;;;;;5109380;28;20401;-82
2022/06/29 11:54:50;;;;;;;0.40;0.35;;;26.90;90.20;;;;;;5074084;28;20497;-82
2022/06/29 11:57:18;;;;;;;0.35;0.32;;;27.00;89.10;;;;;;5074286;28;20047;-82
2022/06/29 11:59:46;;;;;;;0.40;0.40;;;27.20;90.50;;;;;;5057837;28;20037;-82
2022/06/29 12:02:15;;;;;;;0.52;0.40;;;27.20;91.20;;;;;;5074084;28;20036;-82
2022/06/29 12:04:43;;;;;;;0.77;0.50;;;27.20;87.50;;;;;;5090548;28;20096;-82
2022/06/29 12:07:16;;;;;;;1.33;0.50;;;27.10;91.00;;;;;;5057359;28;20040;-83
2022/06/29 12:09:45;;;;;;;0.40;0.40;;;27.10;91.70;;;;;;5107328;28;20037;-82
2022/06/29 12:12:13;;;;;;;0.35;0.35;;;27.10;92.00;;;;;;5074636;28;20166;-81
2022/06/29 12:14:40;;;;;;;0.47;0.43;;;27.20;90.20;;;;;;5106831;28;20039;-82
2022/06/29 12:17:09;;;;;;;0.65;0.50;;;27.40;90.60;;;;;;5073441;28;20052;-82
2022/06/29 12:19:38;;;;;;;0.80;0.60;;;27.60;90.30;;;;;;5090587;28;20135;-81
2022/06/29 12:22:06;;;;;;;0.40;0.40;;;27.90;90.80;;;;;;5058052;28;20080;-82
2022/06/29 12:24:33;;;;;;;0.80;0.57;;;28.20;90.40;;;;;;5106736;28;20068;-81
2022/06/29 12:27:00;;;;;;;0.47;0.45;;;28.40;90.80;;;;;;5053376;28;20551;-82
2022/06/29 12:29:26;;;;;;;0.70;0.50;;;28.30;90.00;;;;;;5086701;28;20119;-82
2022/06/29 12:31:53;;;;;;;0.55;0.55;;;28.30;88.70;;;;;;5086356;28;20033;-80
2022/06/29 12:34:20;;;;;;;0.50;0.50;;;28.30;90.20;;;;;;5086555;28;20106;-81
2022/06/29 12:36:46;;;;;;;0.65;0.57;;;28.20;90.10;;;;;;5103031;28;20041;-82
2022/06/29 12:39:13;;;;;;;0.77;0.57;;;28.10;90.60;;;;;;5070061;28;20044;-81
2022/06/29 12:41:40;;;;;;;0.63;0.47;;;27.90;90.70;;;;;;5102575;28;20053;-81
2022/06/29 12:44:07;;;;;;;1.13;0.65;;;28.00;91.40;;;;;;5086410;28;20418;-82
2022/06/29 12:46:34;;;;;;;0.80;0.70;;;28.10;91.80;;;;;;5070228;28;20033;-81
2022/06/29 12:49:01;;;;;;;0.70;0.50;;;28.10;91.30;;;;;;5069837;28;20543;-80
2022/06/29 12:51:28;;;;;;;1.23;0.73;;;28.00;91.40;;;;;;5086580;28;20498;-81
2022/06/29 12:53:55;;;;;;;0.90;0.70;;;28.00;91.40;;;;;;5069147;28;20055;-81
2022/06/29 12:56:21;;;;;;;0.43;0.43;;;27.70;91.00;;;;;;5086213;28;20052;-82
2022/06/29 12:58:48;;;;;;;1.05;0.70;;;27.50;91.80;;;;;;5102575;28;20051;-82
2022/06/29 13:01:15;;;;;;;0.63;0.50;;;27.50;92.10;;;;;;5102998;28;20045;-83
2022/06/29 13:03:42;;;;;;;0.90;0.73;;;27.30;92.40;;;;;;5085852;28;20098;-81
2022/06/29 13:06:08;;;;;;;0.52;0.50;;;27.30;92.80;;;;;;5086142;28;20048;-80
2022/06/29 13:08:35;;;;;;;0.50;0.50;;;27.30;92.60;;;;;;5085658;28;20044;-81
2022/06/29 13:11:02;;;;;;;0.90;0.70;;;27.30;92.30;;;;;;5085734;28;20040;-81
2022/06/29 13:13:30;;;;;;;0.85;0.50;;;27.30;92.20;;;;;;5085907;28;20041;-81
2022/06/29 13:15:56;;;;;;;0.45;0.45;;;27.50;92.30;;;;;;5102288;28;20052;-82
2022/06/29 13:18:23;;;;;;;1.00;0.70;;;27.80;92.20;;;;;;5086480;28;20048;-82
2022/06/29 13:20:50;;;;;;;0.60;0.60;;;28.10;92.60;;;;;;5086018;28;20376;-81
2022/06/29 13:23:17;;;;;;;1.15;0.80;;;28.30;93.20;;;;;;5102573;28;20059;-82
2022/06/29 13:25:45;;;;;;;1.15;0.80;;;28.50;92.50;;;;;;5086641;28;20036;-82
2022/06/29 13:28:13;;;;;;;0.52;0.50;;;28.70;91.70;;;;;;5089511;28;20068;-82